Sample Charts Sidebar
> Live data! Your data is on the web site for you to access within minutes
 
> Detailed data is easily downloaded as data file, which can be opened with Excel
 
> Charts can be customised if necessary
  Chart 1
 

(A maximum of 50 rows are displayed here. Use "Export Data" to see all rows in the date range.)
Date Collected Temperature
(Celcius)
Wind-chill
(Celcius)
Wind Speed
(km/hr)
Gust
(km/hr)
Wind Direction
(degrees)
2021-01-16 00:00 5.8 5.9 1 3 355
2021-01-15 23:00 7.0 7.0 0 2 23
2021-01-15 22:00 7.5 7.5 1 2 24
2021-01-15 21:00 6.8 6.9 0 1 16
2021-01-15 20:00 8.0 8.1 1 3 114
2021-01-15 19:00 8.8 8.5 2 7 167
2021-01-15 18:00 9.8 9.7 2 5 185
2021-01-15 17:00 10.3 9.6 3 11 209
2021-01-15 16:00 11.4 10.9 1 8 217
2021-01-15 15:00 12.1 10.2 5 11 204
2021-01-15 14:00 13.0 10.9 5 11 198
2021-01-15 13:00 13.5 11.2 5 15 176
2021-01-15 12:00 13.0 11.8 4 10 185
2021-01-15 11:00 12.4 11.8 3 8 200
2021-01-15 10:00 11.6 10.7 4 8 210
2021-01-15 09:00 10.7 9.7 3 7 200
2021-01-15 08:00 8.0 7.9 1 3 161
2021-01-15 07:00 8.8 8.7 1 3 203
2021-01-15 06:00 8.4 8.1 2 5 185
2021-01-15 05:00 7.9 7.7 2 5 182
2021-01-15 04:00 7.4 7.5 0 2 217
2021-01-15 03:00 8.3 8.5 0 2 178
2021-01-15 02:00 9.8 9.6 2 7 185
2021-01-15 01:00 10.0 9.8 2 8 199
2021-01-15 00:00 10.2 10.1 2 5 197
2021-01-14 23:00 10.2 10.1 2 5 216
2021-01-14 22:00 10.5 9.6 4 9 211
2021-01-14 21:00 10.6 9.5 4 8 214
2021-01-14 20:00 10.8 9.6 4 10 213
2021-01-14 19:00 11.2 9.5 5 11 225
2021-01-14 18:00 11.8 11.2 3 8 221
2021-01-14 17:00 12.3 11.2 4 9 219
2021-01-14 16:00 13.3 10.2 6 14 223
2021-01-14 15:00 14.1 11.6 6 16 219
2021-01-14 14:00 15.5 13.1 6 11 223
2021-01-14 13:00 14.5 13.9 3 8 235
2021-01-14 12:00 13.8 13.3 3 6 244
2021-01-14 11:00 13.5 13.2 3 6 236
2021-01-14 10:00 12.8 12.8 1 3 238
2021-01-14 09:00 12.4 12.4 1 2 239
2021-01-14 08:00 12.1 12.1 0 1 270
2021-01-14 07:00 12.0 11.9 0 1 203
2021-01-14 06:00 11.9 11.9 1 2 240
2021-01-14 05:00 12.0 11.9 2 5 214
2021-01-14 04:00 12.1 12.0 2 6 216
2021-01-14 03:00 12.3 11.7 3 7 223
2021-01-14 02:00 12.4 12.2 2 7 233
2021-01-14 01:00 12.4 12.4 2 5 240
2021-01-14 00:00 12.7 11.8 3 10 234
2021-01-13 23:00 12.8 12.2 3 10 252